MST,Max TemperatureF,Mean TemperatureF,Min TemperatureF,Max Dew PointF,MeanDew PointF,Min DewpointF,Max Humidity, Mean Humidity, Min Humidity, Max Sea Level PressureIn, Mean Sea Level PressureIn, Min Sea Level PressureIn, Max VisibilityMiles, Mean VisibilityMiles, Min VisibilityMiles, Max Wind SpeedMPH, Mean Wind SpeedMPH, Max Gust SpeedMPH,PrecipitationIn, CloudCover, Events, WindDirDegrees
2012-8-1,86,77,68,61,56,52,78,49,35,30.20,30.03,29.96,10,10,10,10,6,,0.00,3,,267
2012-8-2,89,80,71,57,52,50,53,38,28,30.01,29.95,29.88,10,10,10,14,8,20,0.00,3,,256
2012-8-3,89,80,71,58,51,46,53,37,24,30.06,29.90,29.83,10,10,8,12,6,24,0.01,4,Rain-Thunderstorm,227
2012-8-4,90,79,68,58,53,48,63,41,25,30.19,29.98,29.86,10,10,9,25,7,34,0.02,3,Rain-Thunderstorm,247
2012-8-5,91,80,69,63,55,50,68,45,27,30.24,30.04,29.93,10,10,7,18,6,23,0.02,2,Rain-Thunderstorm,166
2012-8-6,95,82,69,63,56,48,78,45,21,30.19,30.04,29.91,10,10,10,17,7,21,0.15,2,Rain-Thunderstorm,224
2012-8-7,96,82,68,63,56,48,83,47,20,30.18,29.99,29.86,10,9,2,38,8,62,0.00,3,Rain-Thunderstorm,285
2012-8-8,95,84,71,63,58,55,69,48,26,30.16,29.97,29.86,10,10,10,22,8,30,0.01,5,Rain-Thunderstorm,253
2012-8-9,93,81,69,63,53,45,78,41,19,30.02,29.94,29.84,10,10,10,16,6,29,0.00,3,,117
2012-8-10,93,81,69,59,52,45,55,37,24,30.08,29.89,29.80,10,10,10,16,7,26,0.10,2,Rain-Thunderstorm,152
2012-8-11,96,84,72,57,51,42,57,34,16,29.91,29.86,29.80,10,10,10,17,8,26,0.00,0,,188
2012-8-12,98,86,73,53,45,39,42,26,13,29.91,29.85,29.81,10,10,10,15,7,23,0.00,0,,206
2012-8-13,98,86,75,51,47,39,38,26,13,30.09,29.90,29.78,10,10,10,14,9,21,0.01,4,Thunderstorm,211
2012-8-14,95,83,71,62,52,46,73,39,20,30.10,29.91,29.77,10,10,6,22,6,36,0.02,5,Rain-Thunderstorm,252
2012-8-15,91,78,62,64,58,52,94,58,27,30.21,29.95,29.77,10,9,1,25,10,33,0.53,6,Rain-Thunderstorm,247
2012-8-16,77,70,64,66,62,59,94,76,56,30.19,30.01,29.91,10,10,10,12,6,,0.05,5,Rain,241
2012-8-17,77,72,68,66,64,60,90,76,57,30.21,30.03,29.96,10,10,10,24,7,21,0.03,5,Rain-Thunderstorm,273
2012-8-18,84,75,66,63,61,58,84,63,44,30.07,29.94,29.84,10,10,10,17,7,22,0.00,1,,272
2012-8-19,88,77,66,63,60,57,90,57,35,30.04,29.90,29.81,10,10,10,15,5,22,0.00,1,Thunderstorm,227
2012-8-20,91,80,69,64,58,45,78,52,21,29.97,29.90,29.83,10,10,10,18,4,20,0.00,5,,204
2012-8-21,84,78,71,63,61,59,69,58,42,30.10,29.94,29.86,10,10,10,14,6,21,0.00,4,Thunderstorm,274
2012-8-22,78,71,64,67,64,61,94,78,54,30.16,30.01,29.90,10,10,3,12,6,,0.55,6,Rain-Thunderstorm,347
2012-8-23,84,76,68,66,63,57,94,67,42,30.05,29.93,29.86,10,10,10,18,5,23,0.00,4,Thunderstorm,268
2012-8-24,86,77,68,64,59,54,78,58,37,30.08,29.91,29.84,10,10,7,16,7,34,0.01,2,Rain-Thunderstorm,270
2012-8-25,87,76,66,56,54,51,68,46,29,29.89,29.86,29.80,10,10,10,15,8,20,0.00,0,,274
2012-8-26,90,79,68,58,55,51,63,47,29,30.08,29.92,29.84,10,10,10,15,7,30,0.00,1,Thunderstorm,274
2012-8-27,89,79,69,64,59,55,83,55,31,30.19,30.02,29.89,10,9,1,31,6,50,0.40,5,Rain-Thunderstorm,122
2012-8-28,88,77,66,63,51,38,83,45,18,30.10,29.98,29.89,10,10,10,14,6,21,0.00,1,,108
2012-8-29,89,76,62,64,47,41,59,37,21,29.99,29.91,29.83,10,10,10,16,7,21,0.00,1,,149
2012-8-30,91,78,66,59,54,41,78,49,18,30.06,29.88,29.80,10,10,10,15,7,,0.00,2,,246
2012-8-31,89,78,66,57,55,46,73,47,22,30.14,29.92,29.86,10,10,10,17,6,16,0.00,2,,247